MMMZ/MZT METAR and TAF weather

Enter ICAO airport designator
Station Type Date Time Source
MMMZ METAR 2022/01/29 13:40 UTC NOAA

MMMZ 291340Z 00000KT 15SM SKC 12/12 A3002


Station Type Date Time Source
MMMZ Decoded METAR 2022/01/29 13:40 UTC NOAA

Mazatlan / G. Buelna, Mexico (MMMZ) 23-10N 106-16W
Jan 29, 2022 - 08:40 AM EST / 2022.01.29 1340 UTC
Wind: Calm:0
Visibility: 15 mile(s):0
Sky conditions: clear
Temperature: 53 F (12 C)
Dew Point: 53 F (12 C)
Relative Humidity: 100%
Pressure (altimeter): 30.02 in. Hg (1016 hPa)
ob: MMMZ 291340Z 00000KT 15SM SKC 12/12 A3002
cycle: 13

Station Type Date Time Source
MMMZ TAF 2022/01/29 12:38 UTC NOAA

TAF MMMZ 291133Z 2912/3018 00000KT 6SM HZ SKC TX28/2920Z TN12/2912Z
FM291800 26010KT P6SM SKC
FM300400 24005KT 6SM HZ SKC
TEMPO 3011/3014 3SM BR

Example: see airport list